createdAt,value
2023-03-24T00:00:07.283Z,93.16
2023-03-24T00:01:07.216Z,92.97
2023-03-24T00:02:07.181Z,92.88
2023-03-24T00:03:07.147Z,92.97
2023-03-24T00:04:07.090Z,92.97
2023-03-24T00:05:07.002Z,92.97
2023-03-24T00:06:06.940Z,92.78
2023-03-24T00:07:06.885Z,92.97
2023-03-24T00:08:06.835Z,92.97
2023-03-24T00:09:06.795Z,93.07
2023-03-24T00:10:06.724Z,93.07
2023-03-24T00:11:06.670Z,93.64
2023-03-24T00:12:06.607Z,93.55
2023-03-24T00:13:06.566Z,93.64
2023-03-24T00:14:06.500Z,92.88
2023-03-24T00:15:06.446Z,93.16
2023-03-24T00:16:06.518Z,93.64
2023-03-24T00:17:06.332Z,93.74
2023-03-24T00:18:06.310Z,93.16
2023-03-24T00:19:06.223Z,93.26
2023-03-24T00:20:06.179Z,93.45
2023-03-24T00:21:06.117Z,93.16
2023-03-24T00:22:06.058Z,93.35
2023-03-24T00:23:06.002Z,93.64
2023-03-24T00:24:05.950Z,93.45
2023-03-24T00:25:05.895Z,93.45
2023-03-24T00:26:05.838Z,93.45
2023-03-24T00:27:05.796Z,94.12
2023-03-24T00:28:05.732Z,94.02
2023-03-24T00:29:05.672Z,94.02
2023-03-24T00:30:05.623Z,93.84
2023-03-24T00:31:05.578Z,93.84
2023-03-24T00:32:05.522Z,93.84
2023-03-24T00:33:05.513Z,93.93
2023-03-24T00:34:05.408Z,93.93
2023-03-24T00:35:05.354Z,93.84
2023-03-24T00:36:05.308Z,93.55
2023-03-24T00:37:05.239Z,93.84
2023-03-24T00:38:05.182Z,93.93
2023-03-24T00:39:05.187Z,93.74
2023-03-24T00:40:05.075Z,93.74
2023-03-24T00:41:05.023Z,93.64
2023-03-24T00:42:04.969Z,93.64
2023-03-24T00:43:04.913Z,93.93
2023-03-24T00:44:04.854Z,94.12
2023-03-24T00:45:04.802Z,94.12
2023-03-24T00:46:04.743Z,93.93
2023-03-24T00:47:05.506Z,94.60
2023-03-24T00:48:04.905Z,94.41
2023-03-24T00:49:04.578Z,94.12
2023-03-24T00:50:04.524Z,94.31
2023-03-24T00:51:04.473Z,94.02
2023-03-24T00:52:04.423Z,94.60
2023-03-24T00:53:04.365Z,94.50
2023-03-24T00:54:04.308Z,94.70
2023-03-24T00:55:04.262Z,94.21
2023-03-24T00:56:04.193Z,94.41
2023-03-24T00:57:04.190Z,94.89
2023-03-24T00:58:04.093Z,94.70
2023-03-24T00:59:04.047Z,94.70
2023-03-24T01:00:03.975Z,94.50
2023-03-24T01:01:03.948Z,94.60
2023-03-24T01:02:03.893Z,94.70
2023-03-24T01:03:03.815Z,94.60
2023-03-24T01:04:03.759Z,94.70
2023-03-24T01:05:03.701Z,94.79
2023-03-24T01:06:08.517Z,94.89
2023-03-24T01:07:04.489Z,95.27
2023-03-24T01:08:03.967Z,95.07
2023-03-24T01:09:03.476Z,95.07
2023-03-24T01:10:03.425Z,95.07
2023-03-24T01:11:03.370Z,94.98
2023-03-24T01:12:03.311Z,94.89
2023-03-24T01:13:03.257Z,95.07
2023-03-24T01:14:03.207Z,94.89
2023-03-24T01:15:03.146Z,94.89
2023-03-24T01:16:03.131Z,94.89
2023-03-24T01:17:03.038Z,94.98
2023-03-24T01:18:03.026Z,95.46
2023-03-24T01:19:02.929Z,94.98
2023-03-24T01:20:02.902Z,95.36
2023-03-24T01:21:02.817Z,95.17
2023-03-24T01:22:02.755Z,95.36
2023-03-24T01:23:02.704Z,95.27
2023-03-24T01:24:02.647Z,95.17
2023-03-24T01:25:02.591Z,95.17
2023-03-24T01:26:02.537Z,95.07
2023-03-24T01:27:02.487Z,95.27
2023-03-24T01:28:02.431Z,95.27
2023-03-24T01:29:02.372Z,95.27
2023-03-24T01:30:02.333Z,95.27
2023-03-24T01:31:02.264Z,95.07
2023-03-24T01:32:02.302Z,95.27
2023-03-24T01:33:02.206Z,95.94
2023-03-24T01:34:02.153Z,95.75
2023-03-24T01:35:02.049Z,95.84
2023-03-24T01:36:02.014Z,95.75
2023-03-24T01:37:01.937Z,95.75
2023-03-24T01:38:01.883Z,96.03
2023-03-24T01:39:01.820Z,94.98
2023-03-24T01:40:01.768Z,94.98
2023-03-24T01:41:01.713Z,95.84
2023-03-24T01:42:01.662Z,95.07
2023-03-24T01:43:01.617Z,96.03
2023-03-24T01:44:01.554Z,95.07
2023-03-24T01:45:01.501Z,95.27
2023-03-24T01:46:01.533Z,95.56
2023-03-24T01:47:01.420Z,95.17
2023-03-24T01:48:01.427Z,95.36
2023-03-24T01:49:01.310Z,95.65
2023-03-24T01:50:01.219Z,95.36
2023-03-24T01:51:01.165Z,95.36
2023-03-24T01:52:01.175Z,95.56
2023-03-24T01:53:01.060Z,95.56
2023-03-24T01:54:01.032Z,95.27
2023-03-24T01:55:00.961Z,95.46
2023-03-24T01:56:00.899Z,95.36
2023-03-24T01:57:00.900Z,95.46
2023-03-24T01:58:00.804Z,95.46
2023-03-24T01:59:15.581Z,95.65
2023-03-24T02:00:00.696Z,95.36
2023-03-24T02:01:00.632Z,95.84
2023-03-24T02:02:00.569Z,95.56
2023-03-24T02:03:00.541Z,95.36
2023-03-24T02:04:00.478Z,95.65
2023-03-24T02:05:00.400Z,95.46
2023-03-24T02:06:00.342Z,95.65
2023-03-24T02:07:00.287Z,95.46
2023-03-24T02:08:00.234Z,95.27
2023-03-24T02:09:00.177Z,95.46
2023-03-24T02:10:00.154Z,95.36
2023-03-24T02:11:00.063Z,95.56
2023-03-24T02:12:00.018Z,95.36
2023-03-24T02:12:59.956Z,95.65
2023-03-24T02:14:05.545Z,95.84
2023-03-24T02:14:59.848Z,95.65
2023-03-24T02:15:59.819Z,95.75
2023-03-24T02:16:59.738Z,95.84
2023-03-24T02:17:59.720Z,95.56
2023-03-24T02:18:59.638Z,95.65
2023-03-24T02:19:59.572Z,95.56
2023-03-24T02:20:59.519Z,95.65
2023-03-24T02:21:59.465Z,95.46
2023-03-24T02:22:59.407Z,95.65
2023-03-24T02:23:59.364Z,95.56
2023-03-24T02:24:59.297Z,95.94
2023-03-24T02:25:59.256Z,96.03
2023-03-24T02:26:59.187Z,96.03
2023-03-24T02:27:59.141Z,95.46
2023-03-24T02:28:59.084Z,95.94
2023-03-24T02:29:59.025Z,95.94
2023-03-24T02:30:58.970Z,95.46
2023-03-24T02:31:58.952Z,95.94
2023-03-24T02:32:59.543Z,95.94
2023-03-24T02:33:58.810Z,95.94
2023-03-24T02:34:58.750Z,95.94
2023-03-24T02:35:58.741Z,95.75
2023-03-24T02:36:58.636Z,95.75
2023-03-24T02:37:58.588Z,95.65
2023-03-24T02:38:58.523Z,95.75
2023-03-24T02:39:58.481Z,95.94
2023-03-24T02:40:58.427Z,95.84
2023-03-24T02:41:58.364Z,95.75
2023-03-24T02:42:58.305Z,95.94
2023-03-24T02:43:58.263Z,95.94
2023-03-24T02:44:58.199Z,95.94
2023-03-24T02:46:13.089Z,95.46
2023-03-24T02:46:58.085Z,95.65
2023-03-24T02:47:58.088Z,95.46
2023-03-24T02:48:57.981Z,95.84
2023-03-24T02:49:57.922Z,95.84
2023-03-24T02:50:57.865Z,95.56
2023-03-24T02:51:57.814Z,95.56
2023-03-24T02:53:00.518Z,95.46
2023-03-24T02:53:57.705Z,96.22
2023-03-24T02:54:57.644Z,96.22
2023-03-24T02:55:57.595Z,96.03
2023-03-24T02:56:57.659Z,96.32
2023-03-24T02:57:57.478Z,96.22
2023-03-24T02:58:57.428Z,96.22
2023-03-24T02:59:57.371Z,96.13
2023-03-24T03:00:57.314Z,96.03
2023-03-24T03:01:57.256Z,96.13
2023-03-24T03:02:57.211Z,96.13
2023-03-24T03:03:57.202Z,96.03
2023-03-24T03:04:57.093Z,96.51
2023-03-24T03:05:57.036Z,96.13
2023-03-24T03:06:56.975Z,96.03
2023-03-24T03:08:01.545Z,96.03
2023-03-24T03:08:56.875Z,96.13
2023-03-24T03:09:56.819Z,96.13
2023-03-24T03:10:56.755Z,96.22
2023-03-24T03:11:56.712Z,96.42
2023-03-24T03:12:57.533Z,96.61
2023-03-24T03:13:56.611Z,96.13
2023-03-24T03:14:56.544Z,96.22
2023-03-24T03:15:56.520Z,96.32
2023-03-24T03:16:56.428Z,96.22
2023-03-24T03:17:56.385Z,96.03
2023-03-24T03:18:56.321Z,96.03
2023-03-24T03:19:56.270Z,96.13
2023-03-24T03:20:56.208Z,96.03
2023-03-24T03:21:56.158Z,96.51
2023-03-24T03:22:56.100Z,96.03
2023-03-24T03:23:56.049Z,96.42
2023-03-24T03:24:55.989Z,96.42
2023-03-24T03:25:55.936Z,95.65
2023-03-24T03:27:10.541Z,95.94
2023-03-24T03:27:55.826Z,95.94
2023-03-24T03:28:55.779Z,95.84
2023-03-24T03:29:55.718Z,95.65
2023-03-24T03:30:55.688Z,96.03
2023-03-24T03:31:55.612Z,95.75
2023-03-24T03:32:55.606Z,95.65
2023-03-24T03:33:55.503Z,95.75
2023-03-24T03:34:55.442Z,95.84
2023-03-24T03:35:55.424Z,95.75
2023-03-24T03:36:55.344Z,95.75
2023-03-24T03:37:55.284Z,95.36
2023-03-24T03:38:55.224Z,95.27
2023-03-24T03:39:55.168Z,95.17
2023-03-24T03:40:55.119Z,96.03
2023-03-24T03:41:55.059Z,95.07
2023-03-24T03:42:55.014Z,95.27
2023-03-24T03:43:54.957Z,96.03
2023-03-24T03:44:54.896Z,94.98
2023-03-24T03:45:54.902Z,95.75
2023-03-24T03:46:54.783Z,95.07
2023-03-24T03:47:54.755Z,96.03
2023-03-24T03:48:54.683Z,95.84
2023-03-24T03:49:54.620Z,96.03
2023-03-24T03:51:06.283Z,95.75
2023-03-24T03:51:54.511Z,95.94
2023-03-24T03:52:54.456Z,95.94
2023-03-24T03:53:54.409Z,95.94
2023-03-24T03:54:54.342Z,95.75
2023-03-24T03:55:54.290Z,95.65
2023-03-24T03:56:54.275Z,94.98
2023-03-24T03:57:54.180Z,95.84
2023-03-24T03:58:54.133Z,94.98
2023-03-24T03:59:54.069Z,95.27
2023-03-24T04:00:54.010Z,95.07
2023-03-24T04:01:54.011Z,95.07
2023-03-24T04:02:53.966Z,95.17
2023-03-24T04:03:53.896Z,94.98
2023-03-24T04:05:05.207Z,95.27
2023-03-24T04:05:53.738Z,95.17
2023-03-24T04:06:53.687Z,95.17
2023-03-24T04:07:53.630Z,95.17
2023-03-24T04:08:53.578Z,95.17
2023-03-24T04:09:53.524Z,95.07
2023-03-24T04:10:53.463Z,95.36
2023-03-24T04:11:53.415Z,95.46
2023-03-24T04:12:53.350Z,95.36
2023-03-24T04:13:53.300Z,95.36
2023-03-24T04:14:53.277Z,95.36
2023-03-24T04:15:53.199Z,95.36
2023-03-24T04:16:53.131Z,95.17
2023-03-24T04:17:53.109Z,95.17
2023-03-24T04:18:53.024Z,95.36
2023-03-24T04:19:52.973Z,95.27
2023-03-24T04:20:52.921Z,95.36
2023-03-24T04:21:52.855Z,95.36
2023-03-24T04:22:52.806Z,95.36
2023-03-24T04:23:52.749Z,95.46
2023-03-24T04:24:52.693Z,95.36
2023-03-24T04:25:52.644Z,95.36
2023-03-24T04:26:52.581Z,95.17
2023-03-24T04:27:52.528Z,95.36
2023-03-24T04:28:52.472Z,94.89
2023-03-24T04:29:52.424Z,95.46
2023-03-24T04:30:52.386Z,95.36
2023-03-24T04:31:52.338Z,95.46
2023-03-24T04:32:52.299Z,95.46
2023-03-24T04:33:52.195Z,95.07
2023-03-24T04:34:52.140Z,95.17
2023-03-24T04:35:52.106Z,94.98
2023-03-24T04:36:52.029Z,94.89
2023-03-24T04:37:51.980Z,94.89
2023-03-24T04:38:51.918Z,95.07
2023-03-24T04:39:51.875Z,95.07
2023-03-24T04:40:51.806Z,94.89
2023-03-24T04:41:51.756Z,94.89
2023-03-24T04:42:51.698Z,95.27
2023-03-24T04:43:51.647Z,95.17
2023-03-24T04:44:51.766Z,94.79
2023-03-24T04:45:51.540Z,94.70
2023-03-24T04:46:51.486Z,94.50
2023-03-24T04:47:51.438Z,94.41
2023-03-24T04:48:51.376Z,94.89
2023-03-24T04:49:51.317Z,94.50
2023-03-24T04:50:51.261Z,94.70
2023-03-24T04:51:51.211Z,94.60
2023-03-24T04:52:51.148Z,94.50
2023-03-24T04:53:51.108Z,94.50
2023-03-24T04:54:51.039Z,94.41
2023-03-24T04:55:51.001Z,94.50
2023-03-24T04:56:51.104Z,94.60
2023-03-24T04:57:50.876Z,94.60
2023-03-24T04:58:50.822Z,94.70
2023-03-24T04:59:50.768Z,94.70
2023-03-24T05:00:50.741Z,94.89
2023-03-24T05:01:50.654Z,94.89
2023-03-24T05:02:50.631Z,94.79
2023-03-24T05:03:50.574Z,94.50
2023-03-24T05:04:50.490Z,94.31
2023-03-24T05:05:50.435Z,94.41
2023-03-24T05:06:50.386Z,94.50
2023-03-24T05:07:50.323Z,94.50
2023-03-24T05:08:50.287Z,94.70
2023-03-24T05:09:50.223Z,94.70
2023-03-24T05:10:50.156Z,94.89
2023-03-24T05:11:50.120Z,94.41
2023-03-24T05:12:50.048Z,94.41
2023-03-24T05:13:49.991Z,94.41
2023-03-24T05:14:49.936Z,94.60
2023-03-24T05:15:49.885Z,94.31
2023-03-24T05:16:49.860Z,94.60
2023-03-24T05:17:49.789Z,94.60
2023-03-24T05:18:49.723Z,94.60
2023-03-24T05:19:49.662Z,94.70
2023-03-24T05:20:49.611Z,94.50
2023-03-24T05:21:49.567Z,94.60
2023-03-24T05:22:49.495Z,94.70
2023-03-24T05:23:49.444Z,94.31
2023-03-24T05:24:49.384Z,94.79
2023-03-24T05:25:49.328Z,94.50
2023-03-24T05:26:49.279Z,94.41
2023-03-24T05:27:49.218Z,94.41
2023-03-24T05:28:49.165Z,94.41
2023-03-24T05:29:49.110Z,94.50
2023-03-24T05:30:49.079Z,94.02
2023-03-24T05:31:49.010Z,93.64
2023-03-24T05:32:48.958Z,93.64
2023-03-24T05:33:48.896Z,93.93
2023-03-24T05:34:48.838Z,94.21
2023-03-24T05:35:48.925Z,94.12
2023-03-24T05:36:48.722Z,93.93
2023-03-24T05:37:48.669Z,93.93
2023-03-24T05:38:48.609Z,93.74
2023-03-24T05:39:50.091Z,94.02
2023-03-24T05:40:48.500Z,94.31
2023-03-24T05:41:48.444Z,94.02
2023-03-24T05:42:48.390Z,94.02
2023-03-24T05:43:48.335Z,94.02
2023-03-24T05:44:48.280Z,94.12
2023-03-24T05:45:48.568Z,94.31
2023-03-24T05:46:48.193Z,94.41
2023-03-24T05:47:48.148Z,94.50
2023-03-24T05:48:48.067Z,94.41
2023-03-24T05:50:02.615Z,94.41
2023-03-24T05:50:47.953Z,94.41
2023-03-24T05:51:47.894Z,94.21
2023-03-24T05:52:47.849Z,94.89
2023-03-24T05:53:47.785Z,94.70
2023-03-24T05:54:47.732Z,94.50
2023-03-24T05:55:47.674Z,94.70
2023-03-24T05:56:47.644Z,94.31
2023-03-24T05:57:48.063Z,94.41
2023-03-24T05:58:49.089Z,94.70
2023-03-24T05:59:47.461Z,94.89
2023-03-24T06:00:47.399Z,94.50
2023-03-24T06:01:47.347Z,95.27
2023-03-24T06:02:47.413Z,95.27
2023-03-24T06:03:47.291Z,95.17
2023-03-24T06:04:47.184Z,94.50
2023-03-24T06:05:47.485Z,95.27
2023-03-24T06:06:47.070Z,95.27
2023-03-24T06:07:47.019Z,95.17
2023-03-24T06:08:46.963Z,95.07
2023-03-24T06:09:47.229Z,95.07
2023-03-24T06:10:46.867Z,95.07
2023-03-24T06:11:46.792Z,94.98
2023-03-24T06:12:46.736Z,94.98
2023-03-24T06:13:46.683Z,94.98
2023-03-24T06:14:46.631Z,95.07
2023-03-24T06:15:49.328Z,94.89
2023-03-24T06:16:46.530Z,94.89
2023-03-24T06:17:46.483Z,95.07
2023-03-24T06:18:46.420Z,94.89
2023-03-24T06:19:46.358Z,95.07
2023-03-24T06:20:46.296Z,94.89
2023-03-24T06:21:46.249Z,94.98
2023-03-24T06:22:46.189Z,94.89
2023-03-24T06:23:46.137Z,94.89
2023-03-24T06:24:46.076Z,95.07
2023-03-24T06:25:46.183Z,94.98
2023-03-24T06:26:45.975Z,95.07
2023-03-24T06:27:45.912Z,94.98
2023-03-24T06:28:45.854Z,94.98
2023-03-24T06:29:45.817Z,94.98
2023-03-24T06:30:45.766Z,95.36
2023-03-24T06:31:45.689Z,95.17
2023-03-24T06:32:45.711Z,95.27
2023-03-24T06:33:45.582Z,94.98
2023-03-24T06:34:45.533Z,95.46
2023-03-24T06:35:45.638Z,95.36
2023-03-24T06:36:45.423Z,95.46
2023-03-24T06:37:45.393Z,95.36
2023-03-24T06:38:45.308Z,95.56
2023-03-24T06:39:45.261Z,95.36
2023-03-24T06:40:45.199Z,95.36
2023-03-24T06:41:45.142Z,95.36
2023-03-24T06:42:45.094Z,95.07
2023-03-24T06:43:45.029Z,95.07
2023-03-24T06:44:44.976Z,95.17
2023-03-24T06:45:45.151Z,95.17
2023-03-24T06:46:44.902Z,95.17
2023-03-24T06:47:44.832Z,95.17
2023-03-24T06:48:44.758Z,95.07
2023-03-24T06:49:44.703Z,95.17
2023-03-24T06:50:44.826Z,95.27
2023-03-24T06:51:44.598Z,95.94
2023-03-24T06:52:44.540Z,95.65
2023-03-24T06:53:44.483Z,95.84
2023-03-24T06:54:44.430Z,95.94
2023-03-24T06:55:44.575Z,95.17
2023-03-24T06:56:44.339Z,95.07
2023-03-24T06:57:44.263Z,95.84
2023-03-24T06:58:44.212Z,95.46
2023-03-24T06:59:44.449Z,95.84
2023-03-24T07:00:44.320Z,95.56
2023-03-24T07:01:44.710Z,94.98
2023-03-24T07:02:44.041Z,94.89
2023-03-24T07:03:44.749Z,94.89
2023-03-24T07:04:43.878Z,96.03
2023-03-24T07:05:43.829Z,95.17
2023-03-24T07:06:58.169Z,95.36
2023-03-24T07:08:43.654Z,95.46
2023-03-24T07:09:43.628Z,95.56
2023-03-24T07:10:43.837Z,95.46
2023-03-24T07:11:43.485Z,95.75
2023-03-24T07:12:43.484Z,95.56
2023-03-24T07:13:43.460Z,95.46
2023-03-24T07:14:43.323Z,95.27
2023-03-24T07:15:43.265Z,95.46
2023-03-24T07:16:43.288Z,95.56
2023-03-24T07:17:43.196Z,96.03
2023-03-24T07:18:43.171Z,95.75
2023-03-24T07:19:43.046Z,95.84
2023-03-24T07:20:43.215Z,96.03
2023-03-24T07:21:53.765Z,96.03
2023-03-24T07:22:42.883Z,95.65
2023-03-24T07:23:42.834Z,95.75
2023-03-24T07:24:42.775Z,95.75
2023-03-24T07:25:42.739Z,95.75
2023-03-24T07:26:42.665Z,95.65
2023-03-24T07:27:43.148Z,95.75
2023-03-24T07:28:42.556Z,95.46
2023-03-24T07:29:42.501Z,95.56
2023-03-24T07:30:42.518Z,96.03
2023-03-24T07:31:42.400Z,96.22
2023-03-24T07:32:42.401Z,96.32
2023-03-24T07:33:42.280Z,96.80
2023-03-24T07:34:42.221Z,96.22
2023-03-24T07:35:42.190Z,96.42
2023-03-24T07:36:42.109Z,96.51
2023-03-24T07:37:42.076Z,96.22
2023-03-24T07:38:42.050Z,96.13
2023-03-24T07:39:41.941Z,96.32
2023-03-24T07:40:41.890Z,96.13
2023-03-24T07:41:41.849Z,96.03
2023-03-24T07:42:56.604Z,96.42
2023-03-24T07:43:41.724Z,96.51
2023-03-24T07:44:41.675Z,96.42
2023-03-24T07:45:41.642Z,96.22
2023-03-24T07:46:41.561Z,96.32
2023-03-24T07:47:41.547Z,96.32
2023-03-24T07:48:41.455Z,96.42
2023-03-24T07:49:41.397Z,96.70
2023-03-24T07:50:41.347Z,96.70
2023-03-24T07:51:43.037Z,96.61
2023-03-24T07:52:41.234Z,96.70
2023-03-24T07:53:41.180Z,96.99
2023-03-24T07:54:41.128Z,96.61
2023-03-24T07:55:41.076Z,96.89
2023-03-24T07:56:41.044Z,96.80
2023-03-24T07:57:51.859Z,96.89
2023-03-24T07:58:40.904Z,96.99
2023-03-24T07:59:40.845Z,97.28
2023-03-24T08:00:40.795Z,96.99
2023-03-24T08:01:40.790Z,96.89
2023-03-24T08:02:40.751Z,97.75
2023-03-24T08:03:40.861Z,97.56
2023-03-24T08:04:40.619Z,97.75
2023-03-24T08:05:40.514Z,97.85
2023-03-24T08:06:40.461Z,97.56
2023-03-24T08:09:12.022Z,97.66
2023-03-24T08:10:11.950Z,97.56
2023-03-24T08:12:17.302Z,98.04
2023-03-24T08:13:04.752Z,97.75
2023-03-24T08:14:57.606Z,98.61
2023-03-24T08:15:57.550Z,98.24
2023-03-24T08:17:50.452Z,98.71
2023-03-24T08:18:50.346Z,98.52
2023-03-24T08:20:43.201Z,98.24
2023-03-24T08:21:43.136Z,98.14
2023-03-24T08:23:36.004Z,98.52
2023-03-24T08:24:35.939Z,98.24
2023-03-24T08:26:29.101Z,98.24
2023-03-24T08:27:28.734Z,98.33
2023-03-24T08:29:21.611Z,98.14
2023-03-24T08:30:21.538Z,98.43
2023-03-24T08:32:14.400Z,98.33
2023-03-24T08:33:14.375Z,98.33
2023-03-24T08:35:07.211Z,98.24
2023-03-24T08:36:07.228Z,98.24
2023-03-24T08:38:00.003Z,98.43
2023-03-24T08:38:59.942Z,99.00
2023-03-24T08:40:53.425Z,99.10
2023-03-24T08:41:53.124Z,99.19
2023-03-24T08:43:45.795Z,98.71
2023-03-24T08:44:45.735Z,99.10
2023-03-24T08:46:38.604Z,99.19
2023-03-24T08:47:38.548Z,99.29
2023-03-24T08:49:31.390Z,99.99
2023-03-24T08:50:31.319Z,99.99
2023-03-24T08:52:24.184Z,99.99
2023-03-24T08:53:24.119Z,99.99
2023-03-24T08:55:17.051Z,99.99
2023-03-24T08:56:16.925Z,99.99
2023-03-24T08:58:09.782Z,99.76
2023-03-24T08:59:09.718Z,99.99
2023-03-24T09:01:02.619Z,99.76
2023-03-24T09:02:02.587Z,98.90
2023-03-24T09:03:55.383Z,99.86
2023-03-24T09:04:55.350Z,99.67
2023-03-24T09:06:48.179Z,99.67
2023-03-24T09:07:48.117Z,99.99
2023-03-24T09:09:51.504Z,99.99
2023-03-24T09:10:40.941Z,99.99
2023-03-24T09:12:33.778Z,99.76
2023-03-24T09:13:33.720Z,99.38
2023-03-24T09:15:26.583Z,99.76
2023-03-24T09:16:26.524Z,99.67
2023-03-24T09:18:19.372Z,99.57
2023-03-24T09:19:19.310Z,99.86
2023-03-24T09:21:12.222Z,99.67
2023-03-24T09:22:12.148Z,99.99
2023-03-24T09:24:05.029Z,99.99
2023-03-24T09:25:04.951Z,99.99
2023-03-24T09:26:57.806Z,99.99
2023-03-24T09:27:57.748Z,99.99
2023-03-24T09:29:50.622Z,99.99
2023-03-24T09:30:50.744Z,99.99
2023-03-24T09:32:43.545Z,99.99
2023-03-24T09:33:43.346Z,99.99
2023-03-24T09:35:36.245Z,99.99
2023-03-24T09:36:36.151Z,99.99
2023-03-24T09:38:29.012Z,99.99
2023-03-24T09:39:28.945Z,99.99
2023-03-24T09:41:21.826Z,99.99
2023-03-24T09:42:21.760Z,99.99
2023-03-24T09:44:14.615Z,99.99
2023-03-24T09:45:14.555Z,99.99
2023-03-24T09:47:07.433Z,99.99
2023-03-24T09:48:07.464Z,99.99
2023-03-24T09:50:00.212Z,99.99
2023-03-24T09:51:00.151Z,99.99
2023-03-24T09:52:53.008Z,99.99
2023-03-24T09:53:52.955Z,99.99
2023-03-24T09:55:47.497Z,99.99
2023-03-24T09:56:48.757Z,99.99
2023-03-24T09:58:40.100Z,99.99
2023-03-24T09:59:40.059Z,99.99
2023-03-24T10:01:32.937Z,99.99
2023-03-24T10:02:32.912Z,99.99
2023-03-24T10:04:25.713Z,99.99
2023-03-24T10:05:25.650Z,99.99
2023-03-24T10:07:18.520Z,99.99
2023-03-24T10:08:18.443Z,99.99
2023-03-24T10:10:11.302Z,99.99
2023-03-24T10:11:11.239Z,99.99
2023-03-24T10:13:04.115Z,99.99
2023-03-24T10:14:04.441Z,99.99
2023-03-24T10:15:56.945Z,99.99
2023-03-24T10:16:56.846Z,99.99
2023-03-24T10:18:49.701Z,99.99
2023-03-24T10:19:49.663Z,99.99
2023-03-24T10:21:42.519Z,99.99
2023-03-24T10:22:42.449Z,99.99
2023-03-24T10:24:37.093Z,99.99
2023-03-24T10:25:35.249Z,99.99
2023-03-24T10:27:28.114Z,99.99
2023-03-24T10:28:28.056Z,99.99
2023-03-24T10:30:21.069Z,99.99
2023-03-24T10:31:20.863Z,99.99
2023-03-24T10:33:13.712Z,99.99
2023-03-24T10:34:13.648Z,99.99
2023-03-24T10:36:07.906Z,99.99
2023-03-24T10:37:06.443Z,99.99
2023-03-24T10:39:06.465Z,99.99
2023-03-24T10:39:59.245Z,99.99
2023-03-24T10:41:52.112Z,99.99
2023-03-24T10:43:07.164Z,99.99
2023-03-24T10:44:44.934Z,99.99
2023-03-24T10:45:44.917Z,99.99
2023-03-24T10:47:37.730Z,99.99
2023-03-24T10:48:37.655Z,99.99
2023-03-24T10:50:30.533Z,99.99
2023-03-24T10:51:30.462Z,99.99
2023-03-24T10:53:23.333Z,99.99
2023-03-24T10:54:23.259Z,99.99
2023-03-24T10:56:16.122Z,99.99
2023-03-24T10:57:16.091Z,99.99
2023-03-24T10:59:09.021Z,99.99
2023-03-24T11:00:08.856Z,99.99
2023-03-24T11:02:01.790Z,99.99
2023-03-24T11:03:01.796Z,99.99
2023-03-24T11:04:54.519Z,99.99
2023-03-24T11:05:54.455Z,99.99
2023-03-24T11:07:47.310Z,99.99
2023-03-24T11:08:47.249Z,99.99
2023-03-24T11:10:40.149Z,99.99
2023-03-24T11:11:40.041Z,99.99
2023-03-24T11:13:32.920Z,99.99
2023-03-24T11:14:32.844Z,99.99
2023-03-24T11:16:25.726Z,99.99
2023-03-24T11:17:25.663Z,99.99
2023-03-24T11:19:19.770Z,99.99
2023-03-24T11:20:18.493Z,99.99
2023-03-24T11:22:11.301Z,99.99
2023-03-24T11:23:11.238Z,99.99
2023-03-24T11:25:04.114Z,99.99
2023-03-24T11:26:04.034Z,99.99
2023-03-24T11:27:56.909Z,99.99
2023-03-24T11:28:56.863Z,99.99
2023-03-24T11:30:49.736Z,99.99
2023-03-24T11:31:49.631Z,99.99
2023-03-24T11:33:42.504Z,99.99
2023-03-24T11:34:42.498Z,99.99
2023-03-24T11:36:35.344Z,99.99
2023-03-24T11:37:35.229Z,99.99
2023-03-24T11:39:28.122Z,99.99
2023-03-24T11:40:28.031Z,99.99
2023-03-24T11:42:20.897Z,99.99
2023-03-24T11:43:20.852Z,99.99
2023-03-24T11:45:13.710Z,99.99
2023-03-24T11:46:13.697Z,99.99
2023-03-24T11:48:06.557Z,99.99
2023-03-24T11:49:06.443Z,99.99
2023-03-24T11:50:59.301Z,99.99
2023-03-24T11:51:59.249Z,99.99
2023-03-24T11:53:52.105Z,99.99
2023-03-24T11:54:52.108Z,99.99
2023-03-24T11:56:44.948Z,99.99
2023-03-24T11:57:44.847Z,99.99
2023-03-24T11:59:37.718Z,99.99
2023-03-24T12:00:37.656Z,99.99
2023-03-24T12:02:30.657Z,99.99
2023-03-24T12:03:30.510Z,99.99
2023-03-24T12:05:23.408Z,99.99
2023-03-24T12:06:23.302Z,99.99
2023-03-24T12:08:16.121Z,99.99
2023-03-24T12:09:16.055Z,99.99
2023-03-24T12:11:08.989Z,99.99
2023-03-24T12:12:09.409Z,99.99
2023-03-24T12:14:01.722Z,99.99
2023-03-24T12:15:01.658Z,99.99
2023-03-24T12:16:54.522Z,99.99
2023-03-24T12:17:54.493Z,99.99
2023-03-24T12:19:47.312Z,99.99
2023-03-24T12:20:47.249Z,99.99
2023-03-24T12:22:40.122Z,99.99
2023-03-24T12:23:40.057Z,99.99
2023-03-24T12:25:32.940Z,99.99
2023-03-24T12:26:32.909Z,99.99
2023-03-24T12:28:25.711Z,99.99
2023-03-24T12:29:25.649Z,99.99
2023-03-24T12:31:18.550Z,99.99
2023-03-24T12:32:18.465Z,99.99
2023-03-24T12:34:11.304Z,99.99
2023-03-24T12:35:11.246Z,99.99
2023-03-24T12:37:04.100Z,99.99
2023-03-24T12:38:04.042Z,99.99
2023-03-24T12:39:56.899Z,99.99
2023-03-24T12:40:56.833Z,99.99
2023-03-24T12:42:49.723Z,99.99
2023-03-24T12:43:49.650Z,99.99
2023-03-24T12:45:42.550Z,99.99
2023-03-24T12:46:47.623Z,99.99
2023-03-24T12:48:35.301Z,99.99
2023-03-24T12:49:35.234Z,99.99
2023-03-24T12:51:28.092Z,99.99
2023-03-24T12:52:28.040Z,99.99
2023-03-24T12:54:20.896Z,99.99
2023-03-24T12:55:20.835Z,99.99
2023-03-24T12:57:13.850Z,99.99
2023-03-24T12:58:13.662Z,99.91
2023-03-24T13:00:08.669Z,99.99
2023-03-24T13:01:06.463Z,99.99
2023-03-24T13:02:59.364Z,99.99
2023-03-24T13:03:59.245Z,99.99
2023-03-24T13:05:52.117Z,99.99
2023-03-24T13:06:52.038Z,99.99
2023-03-24T13:08:44.898Z,99.99
2023-03-24T13:09:44.838Z,99.99
2023-03-24T13:11:37.704Z,99.99
2023-03-24T13:12:37.634Z,99.99
2023-03-24T13:14:30.507Z,99.86
2023-03-24T13:15:30.452Z,99.76
2023-03-24T13:17:23.325Z,99.81
2023-03-24T13:18:23.247Z,99.72
2023-03-24T13:20:16.108Z,99.57
2023-03-24T13:21:16.050Z,99.81
2023-03-24T13:23:08.903Z,99.57
2023-03-24T13:24:10.696Z,99.52
2023-03-24T13:26:01.704Z,99.81
2023-03-24T13:27:01.640Z,99.99
2023-03-24T13:28:54.495Z,99.62
2023-03-24T13:29:54.446Z,99.62
2023-03-24T13:31:47.322Z,99.67
2023-03-24T13:32:47.306Z,99.62
2023-03-24T13:34:40.100Z,99.99
2023-03-24T13:35:40.056Z,99.96
2023-03-24T13:37:32.892Z,99.72
2023-03-24T13:38:32.830Z,99.67
2023-03-24T13:40:25.698Z,99.76
2023-03-24T13:41:25.636Z,99.86
2023-03-24T13:43:18.493Z,99.76
2023-03-24T13:44:18.427Z,99.67
2023-03-24T13:46:11.350Z,99.67
2023-03-24T13:47:11.280Z,99.67
2023-03-24T13:49:04.101Z,99.57
2023-03-24T13:50:04.043Z,99.76
2023-03-24T13:51:56.892Z,99.76
2023-03-24T13:52:56.829Z,99.48
2023-03-24T13:54:49.690Z,99.67
2023-03-24T13:55:49.718Z,99.57
2023-03-24T13:57:42.487Z,99.57
2023-03-24T13:58:42.426Z,99.67
2023-03-24T14:00:35.304Z,99.86
2023-03-24T14:01:35.330Z,99.86
2023-03-24T14:03:28.243Z,99.67
2023-03-24T14:04:28.021Z,99.96
2023-03-24T14:06:20.884Z,99.96
2023-03-24T14:07:20.819Z,99.48
2023-03-24T14:09:13.698Z,99.57
2023-03-24T14:10:13.647Z,99.86
2023-03-24T14:12:08.498Z,99.57
2023-03-24T14:13:06.421Z,99.38
2023-03-24T14:14:59.307Z,99.48
2023-03-24T14:15:59.262Z,99.38
2023-03-24T14:17:52.200Z,99.86
2023-03-24T14:18:52.036Z,99.76
2023-03-24T14:20:44.887Z,99.67
2023-03-24T14:21:44.833Z,99.99
2023-03-24T14:23:37.693Z,99.67
2023-03-24T14:24:37.649Z,99.67
2023-03-24T14:26:30.481Z,99.57
2023-03-24T14:27:30.429Z,99.57
2023-03-24T14:29:23.285Z,99.96
2023-03-24T14:30:23.230Z,99.86
2023-03-24T14:32:20.100Z,99.76
2023-03-24T14:33:16.027Z,99.48
2023-03-24T14:35:08.888Z,99.76
2023-03-24T14:36:08.846Z,99.76
2023-03-24T14:38:01.689Z,99.76
2023-03-24T14:39:01.613Z,99.99
2023-03-24T14:40:54.477Z,99.99
2023-03-24T14:41:54.411Z,99.99
2023-03-24T14:43:47.282Z,99.99
2023-03-24T14:44:47.220Z,99.99
2023-03-24T14:46:40.129Z,99.99
2023-03-24T14:47:40.020Z,99.99
2023-03-24T14:49:32.900Z,99.99
2023-03-24T14:50:32.828Z,99.99
2023-03-24T14:52:25.683Z,99.99
2023-03-24T14:53:25.614Z,99.99
2023-03-24T14:55:18.489Z,99.99
2023-03-24T14:56:18.422Z,99.99
2023-03-24T14:58:11.293Z,99.99
2023-03-24T14:59:11.223Z,99.99